Home   Weather   USA   Statesville   Past weeks
Flag for USA

Past Weather in Statesville, North Carolina, USA — Yesterday and Last 2 Weeks

Currently: 67 °F. Sunny. (Weather station: Statesville Municipal Airport, USA). See more current weather

Past Weather in Statesville — Graph

°F

Statesville Temperature Yesterday

Maximum temperature yesterday: 73 °F (at 4:25 pm)
Minimum temperature yesterday: 62 °F (at 11:25 pm)
Average temperature yesterday: 66 °F

High & Low Weather Summary for the Past Weeks

 TemperatureHumidityPressure
High83 °F (Apr 2, 3:35 pm)97% (Apr 10, 4:05 am)30.22 "Hg (Apr 10, 4:05 am)
Low34 °F (Apr 7, 6:45 am)17% (Mar 28, 4:25 pm)29.31 "Hg (Apr 3, 5:05 pm)
Average60 °F57%29.92 "Hg
* Reported Mar 28 1:05 pm — Apr 12 1:25 pm, Statesville. Weather by CustomWeather, © 2024

Note: Actual official high and low records may vary slightly from our data, if they occured in-between our weather recording intervals... More about our weather records

Statesville Weather History for the Previous 24 Hours

Scroll right to see more
 ConditionsComfort  
Time TempWeatherWind HumidityBarometerVisibility
1:25 pm
Fri, Apr 12
66 °FSunny.14 mph29%29.79 "Hg10 mi
1:15 pm66 °FSunny.23 mph30%29.80 "Hg10 mi
12:45 pm65 °FSunny.17 mph29%29.79 "Hg10 mi
11:55 am64 °FSunny.18 mph28%29.80 "Hg10 mi
11:25 am63 °FSunny.23 mph32%29.80 "Hg10 mi
10:55 am62 °FSunny.18 mph33%29.79 "Hg10 mi
10:05 am61 °FSunny.20 mph34%29.78 "Hg10 mi
9:25 am58 °FSunny.9 mph60%29.77 "Hg10 mi
9:05 am57 °FSunny.7 mph65%29.77 "Hg10 mi
8:45 am56 °FScattered clouds.8 mph66%29.76 "Hg10 mi
8:05 am55 °FScattered clouds.9 mph68%29.75 "Hg10 mi
7:45 am54 °FScattered clouds.6 mph68%29.74 "Hg10 mi
7:05 am54 °FOvercast.6 mph69%29.73 "Hg10 mi
6:45 am54 °FMostly cloudy.6 mph66%29.72 "Hg10 mi
6:25 am52 °FPassing clouds.6 mph73%29.71 "Hg10 mi
6:05 am53 °FPassing clouds.6 mph72%29.69 "Hg10 mi
5:45 am53 °FPassing clouds.5 mph72%29.68 "Hg10 mi
5:25 am54 °FPartly cloudy.6 mph69%29.68 "Hg10 mi
5:05 am55 °FPassing clouds.7 mph62%29.67 "Hg10 mi
4:45 am56 °FClear.13 mph62%29.66 "Hg10 mi
4:05 am55 °FOvercast.7 mph69%29.63 "Hg10 mi
3:25 am56 °FPassing clouds.6 mph78%29.61 "Hg10 mi
3:05 am55 °FOvercast.3 mph84%29.59 "Hg10 mi
2:45 am56 °FOvercast.8 mph81%29.58 "Hg10 mi
2:25 am56 °FLight rain. Mostly cloudy.8 mph85%29.57 "Hg10 mi
2:05 am57 °FLight rain. Mostly cloudy.9 mph85%29.56 "Hg10 mi
1:45 am58 °FLight rain. Mostly cloudy.10 mph93%29.55 "Hg10 mi
1:25 am58 °FRain. Overcast.12 mph94%29.54 "Hg7 mi
1:05 am59 °FRain. Overcast.9 mph93%29.53 "Hg7 mi
12:45 am60 °FLight rain. Mostly cloudy.13 mph90%29.52 "Hg7 mi
12:25 am61 °FOvercast.13 mph85%29.51 "Hg10 mi
12:05 am61 °FOvercast.13 mph83%29.50 "Hg10 mi
11:45 pm
Thu, Apr 11
62 °FOvercast.12 mph82%29.49 "Hg10 mi
11:25 pm62 °FLight rain. Overcast.9 mph81%29.48 "Hg10 mi
10:55 pm63 °FPartly cloudy.8 mph79%29.48 "Hg10 mi
10:25 pm64 °FPassing clouds.16 mph85%29.47 "Hg10 mi
9:25 pm64 °FLight rain. Passing clouds.14 mph93%29.46 "Hg10 mi
9:05 pm64 °FPartly cloudy.7 mph96%29.45 "Hg10 mi
8:45 pm64 °FMostly cloudy.3 mph96%29.44 "Hg10 mi
7:45 pm64 °FLight rain. Cloudy.7 mph95%29.42 "Hg3 mi
7:25 pm65 °FHeavy rain. Mostly cloudy.20 mph91%29.44 "Hg1 mi
7:05 pm68 °FMostly cloudy.7 mph87%29.39 "Hg10 mi
6:25 pm71 °FRain. Mostly cloudy.14 mph79%29.40 "Hg10 mi
6:05 pm72 °FMostly cloudy.10 mph76%29.41 "Hg10 mi
5:45 pm72 °FMostly cloudy.15 mph77%29.43 "Hg10 mi
5:25 pm72 °FMostly cloudy.20 mph76%29.44 "Hg10 mi
5:05 pm73 °FMostly cloudy.13 mph77%29.45 "Hg10 mi
4:25 pm73 °FOvercast.14 mph78%29.48 "Hg10 mi
4:05 pm71 °FOvercast.9 mph83%29.50 "Hg10 mi
3:25 pm68 °FOvercast.8 mph89%29.54 "Hg10 mi
3:05 pm67 °FOvercast.8 mph92%29.55 "Hg10 mi
2:45 pm66 °FLight rain. Overcast.6 mph95%29.56 "Hg10 mi
2:25 pm66 °FDrizzle. Low clouds.9 mph95%29.57 "Hg10 mi
Weather by CustomWeather, © 2024

See weather overview